KUGN/UGN METAR and TAF weather

Enter ICAO airport designator
Station Type Date Time Source
KUGN METAR 2019/02/22 22:55 UTC NOAA

KUGN 222255Z 08009KT 5SM HZ CLR 00/M04 A3036 RMK AO2 SLP299 T00001044


Station Type Date Time Source
KUGN Decoded METAR 2019/02/22 22:55 UTC NOAA

CHICAGO/WAUKEGAN REGIONAL, IL, United States (KUGN) 42-25N 087-52W
Feb 22, 2019 - 05:55 PM EST / 2019.02.22 2255 UTC
Wind: from the E (080 degrees) at 10 MPH (9 KT):0
Visibility: 5 mile(s):0
Sky conditions: clear
Weather: haze
Temperature: 32.0 F (0.0 C)
Windchill: 23 F (-5 C):1
Dew Point: 24.1 F (-4.4 C)
Relative Humidity: 72%
Pressure (altimeter): 30.36 in. Hg (1028 hPa)
ob: KUGN 222255Z 08009KT 5SM HZ CLR 00/M04 A3036 RMK AO2 SLP299 T00001044
cycle: 23

Station Type Date Time Source
KUGN TAF UTC NOAA

Error!


Example: see airport list